sensor_id;sensor_type;location;lat;lon;timestamp;P1;durP1;ratioP1;P2;durP2;ratioP2
72273;SDS011;60208;48.692;8.948;2023-04-24T00:00:12;2.22;;;1.30;;
72273;SDS011;60208;48.692;8.948;2023-04-24T00:02:40;3.05;;;1.30;;
72273;SDS011;60208;48.692;8.948;2023-04-24T00:05:06;2.70;;;1.30;;
72273;SDS011;60208;48.692;8.948;2023-04-24T00:07:32;3.65;;;1.42;;
72273;SDS011;60208;48.692;8.948;2023-04-24T00:09:58;1.67;;;1.20;;
72273;SDS011;60208;48.692;8.948;2023-04-24T00:12:24;4.13;;;1.40;;
72273;SDS011;60208;48.692;8.948;2023-04-24T00:14:49;3.50;;;1.17;;
72273;SDS011;60208;48.692;8.948;2023-04-24T00:17:15;3.00;;;1.10;;
72273;SDS011;60208;48.692;8.948;2023-04-24T00:19:40;3.45;;;1.10;;
72273;SDS011;60208;48.692;8.948;2023-04-24T00:22:05;1.42;;;1.00;;
72273;SDS011;60208;48.692;8.948;2023-04-24T00:24:31;2.33;;;1.15;;
72273;SDS011;60208;48.692;8.948;2023-04-24T00:26:56;3.35;;;1.10;;
72273;SDS011;60208;48.692;8.948;2023-04-24T00:29:22;2.72;;;1.10;;
72273;SDS011;60208;48.692;8.948;2023-04-24T00:31:47;2.67;;;1.17;;
72273;SDS011;60208;48.692;8.948;2023-04-24T00:34:13;1.95;;;0.93;;
72273;SDS011;60208;48.692;8.948;2023-04-24T00:36:38;5.85;;;1.30;;
72273;SDS011;60208;48.692;8.948;2023-04-24T00:39:06;2.70;;;1.00;;
72273;SDS011;60208;48.692;8.948;2023-04-24T00:41:33;1.90;;;1.00;;
72273;SDS011;60208;48.692;8.948;2023-04-24T00:43:59;2.30;;;0.90;;
72273;SDS011;60208;48.692;8.948;2023-04-24T00:46:24;2.50;;;1.17;;
72273;SDS011;60208;48.692;8.948;2023-04-24T00:48:50;2.80;;;0.98;;
72273;SDS011;60208;48.692;8.948;2023-04-24T00:51:15;3.28;;;0.85;;
72273;SDS011;60208;48.692;8.948;2023-04-24T00:53:41;1.58;;;0.85;;
72273;SDS011;60208;48.692;8.948;2023-04-24T00:56:09;3.05;;;1.13;;
72273;SDS011;60208;48.692;8.948;2023-04-24T00:58:35;2.20;;;1.00;;
72273;SDS011;60208;48.692;8.948;2023-04-24T01:01:00;3.05;;;0.90;;
72273;SDS011;60208;48.692;8.948;2023-04-24T01:03:28;3.03;;;1.00;;
72273;SDS011;60208;48.692;8.948;2023-04-24T01:05:55;2.90;;;1.25;;
72273;SDS011;60208;48.692;8.948;2023-04-24T01:08:20;2.58;;;0.98;;
72273;SDS011;60208;48.692;8.948;2023-04-24T01:10:53;1.20;;;1.02;;
72273;SDS011;60208;48.692;8.948;2023-04-24T01:13:19;3.40;;;1.30;;
72273;SDS011;60208;48.692;8.948;2023-04-24T01:15:45;2.75;;;1.10;;
72273;SDS011;60208;48.692;8.948;2023-04-24T01:18:11;2.40;;;1.30;;
72273;SDS011;60208;48.692;8.948;2023-04-24T01:20:37;4.13;;;1.10;;
72273;SDS011;60208;48.692;8.948;2023-04-24T01:23:05;2.53;;;1.17;;
72273;SDS011;60208;48.692;8.948;2023-04-24T01:25:34;3.60;;;1.30;;
72273;SDS011;60208;48.692;8.948;2023-04-24T01:28:02;3.58;;;1.20;;
72273;SDS011;60208;48.692;8.948;2023-04-24T01:30:33;3.05;;;1.15;;
72273;SDS011;60208;48.692;8.948;2023-04-24T01:32:59;1.17;;;1.05;;
72273;SDS011;60208;48.692;8.948;2023-04-24T01:35:24;1.08;;;0.90;;
72273;SDS011;60208;48.692;8.948;2023-04-24T01:37:50;2.40;;;1.15;;
72273;SDS011;60208;48.692;8.948;2023-04-24T01:40:15;3.58;;;1.20;;
72273;SDS011;60208;48.692;8.948;2023-04-24T01:42:41;4.97;;;1.33;;
72273;SDS011;60208;48.692;8.948;2023-04-24T01:45:10;1.95;;;1.20;;
72273;SDS011;60208;48.692;8.948;2023-04-24T01:47:38;3.42;;;1.15;;
72273;SDS011;60208;48.692;8.948;2023-04-24T01:50:07;5.28;;;1.40;;
72273;SDS011;60208;48.692;8.948;2023-04-24T01:52:32;1.67;;;1.20;;
72273;SDS011;60208;48.692;8.948;2023-04-24T01:55:01;12.88;;;2.08;;
72273;SDS011;60208;48.692;8.948;2023-04-24T01:57:28;2.15;;;1.73;;
72273;SDS011;60208;48.692;8.948;2023-04-24T01:59:55;3.20;;;1.50;;
72273;SDS011;60208;48.692;8.948;2023-04-24T02:02:21;2.83;;;1.60;;
72273;SDS011;60208;48.692;8.948;2023-04-24T02:04:48;3.92;;;1.80;;
72273;SDS011;60208;48.692;8.948;2023-04-24T02:07:14;3.53;;;1.50;;
72273;SDS011;60208;48.692;8.948;2023-04-24T02:09:40;3.45;;;1.75;;
72273;SDS011;60208;48.692;8.948;2023-04-24T02:12:05;3.58;;;1.60;;
72273;SDS011;60208;48.692;8.948;2023-04-24T02:14:30;4.28;;;1.70;;
72273;SDS011;60208;48.692;8.948;2023-04-24T02:16:59;3.78;;;1.55;;
72273;SDS011;60208;48.692;8.948;2023-04-24T02:19:28;1.75;;;1.38;;
72273;SDS011;60208;48.692;8.948;2023-04-24T02:21:53;4.38;;;1.60;;
72273;SDS011;60208;48.692;8.948;2023-04-24T02:24:18;5.18;;;1.65;;
72273;SDS011;60208;48.692;8.948;2023-04-24T02:26:44;11.35;;;2.17;;
72273;SDS011;60208;48.692;8.948;2023-04-24T02:29:12;6.55;;;2.03;;
72273;SDS011;60208;48.692;8.948;2023-04-24T02:31:38;5.63;;;2.63;;
72273;SDS011;60208;48.692;8.948;2023-04-24T02:34:03;5.05;;;2.30;;
72273;SDS011;60208;48.692;8.948;2023-04-24T02:36:28;3.42;;;2.22;;
72273;SDS011;60208;48.692;8.948;2023-04-24T02:38:55;6.25;;;2.70;;
72273;SDS011;60208;48.692;8.948;2023-04-24T02:41:20;6.95;;;3.20;;
72273;SDS011;60208;48.692;8.948;2023-04-24T02:43:46;6.85;;;2.65;;
72273;SDS011;60208;48.692;8.948;2023-04-24T02:46:11;3.83;;;1.92;;
72273;SDS011;60208;48.692;8.948;2023-04-24T02:48:36;5.40;;;2.20;;
72273;SDS011;60208;48.692;8.948;2023-04-24T02:51:02;7.32;;;2.35;;
72273;SDS011;60208;48.692;8.948;2023-04-24T02:53:27;31.75;;;3.75;;
72273;SDS011;60208;48.692;8.948;2023-04-24T02:55:54;5.90;;;2.83;;
72273;SDS011;60208;48.692;8.948;2023-04-24T02:58:20;7.20;;;2.92;;
72273;SDS011;60208;48.692;8.948;2023-04-24T03:00:45;5.88;;;3.45;;
72273;SDS011;60208;48.692;8.948;2023-04-24T03:03:12;4.60;;;2.75;;
72273;SDS011;60208;48.692;8.948;2023-04-24T03:05:37;8.15;;;3.72;;
72273;SDS011;60208;48.692;8.948;2023-04-24T03:08:02;4.82;;;2.72;;
72273;SDS011;60208;48.692;8.948;2023-04-24T03:10:28;8.43;;;3.63;;
72273;SDS011;60208;48.692;8.948;2023-04-24T03:12:53;5.03;;;2.42;;
72273;SDS011;60208;48.692;8.948;2023-04-24T03:15:20;5.88;;;2.95;;
72273;SDS011;60208;48.692;8.948;2023-04-24T03:17:45;4.35;;;2.40;;
72273;SDS011;60208;48.692;8.948;2023-04-24T03:20:10;8.25;;;2.05;;
72273;SDS011;60208;48.692;8.948;2023-04-24T03:22:36;7.60;;;2.90;;
72273;SDS011;60208;48.692;8.948;2023-04-24T03:25:02;4.50;;;2.20;;
72273;SDS011;60208;48.692;8.948;2023-04-24T03:27:28;5.90;;;2.85;;
72273;SDS011;60208;48.692;8.948;2023-04-24T03:29:54;4.32;;;2.65;;
72273;SDS011;60208;48.692;8.948;2023-04-24T03:32:20;5.70;;;2.75;;
72273;SDS011;60208;48.692;8.948;2023-04-24T03:34:47;3.70;;;2.10;;
72273;SDS011;60208;48.692;8.948;2023-04-24T03:37:13;4.10;;;1.95;;
72273;SDS011;60208;48.692;8.948;2023-04-24T03:39:38;4.13;;;2.15;;
72273;SDS011;60208;48.692;8.948;2023-04-24T03:42:03;3.05;;;1.77;;
72273;SDS011;60208;48.692;8.948;2023-04-24T03:44:29;5.32;;;1.80;;
72273;SDS011;60208;48.692;8.948;2023-04-24T03:46:54;4.55;;;1.92;;
72273;SDS011;60208;48.692;8.948;2023-04-24T03:49:19;3.78;;;1.67;;
72273;SDS011;60208;48.692;8.948;2023-04-24T03:51:45;5.70;;;1.73;;
72273;SDS011;60208;48.692;8.948;2023-04-24T03:54:10;3.75;;;2.00;;
72273;SDS011;60208;48.692;8.948;2023-04-24T03:56:36;1.77;;;1.50;;
72273;SDS011;60208;48.692;8.948;2023-04-24T03:59:01;4.53;;;1.77;;
72273;SDS011;60208;48.692;8.948;2023-04-24T04:01:27;2.97;;;1.60;;
72273;SDS011;60208;48.692;8.948;2023-04-24T04:03:53;3.10;;;1.80;;
72273;SDS011;60208;48.692;8.948;2023-04-24T04:06:18;5.63;;;1.90;;
72273;SDS011;60208;48.692;8.948;2023-04-24T04:08:44;6.07;;;1.95;;
72273;SDS011;60208;48.692;8.948;2023-04-24T04:11:10;4.07;;;1.70;;
72273;SDS011;60208;48.692;8.948;2023-04-24T04:13:35;2.90;;;1.40;;
72273;SDS011;60208;48.692;8.948;2023-04-24T04:16:01;3.83;;;1.80;;
72273;SDS011;60208;48.692;8.948;2023-04-24T04:18:26;3.25;;;1.60;;
72273;SDS011;60208;48.692;8.948;2023-04-24T04:20:51;11.40;;;5.32;;
72273;SDS011;60208;48.692;8.948;2023-04-24T04:23:17;5.15;;;2.58;;
72273;SDS011;60208;48.692;8.948;2023-04-24T04:25:42;2.75;;;1.70;;
72273;SDS011;60208;48.692;8.948;2023-04-24T04:28:07;3.85;;;2.00;;
72273;SDS011;60208;48.692;8.948;2023-04-24T04:30:33;2.22;;;1.80;;
72273;SDS011;60208;48.692;8.948;2023-04-24T04:32:59;3.50;;;2.20;;
72273;SDS011;60208;48.692;8.948;2023-04-24T04:35:25;3.70;;;2.63;;
72273;SDS011;60208;48.692;8.948;2023-04-24T04:37:50;5.40;;;2.95;;
72273;SDS011;60208;48.692;8.948;2023-04-24T04:40:17;5.03;;;2.63;;
72273;SDS011;60208;48.692;8.948;2023-04-24T04:42:43;2.65;;;2.40;;
72273;SDS011;60208;48.692;8.948;2023-04-24T04:45:10;4.00;;;2.65;;
72273;SDS011;60208;48.692;8.948;2023-04-24T04:47:36;6.45;;;3.35;;
72273;SDS011;60208;48.692;8.948;2023-04-24T04:50:02;4.75;;;2.92;;
72273;SDS011;60208;48.692;8.948;2023-04-24T04:52:28;3.63;;;2.53;;
72273;SDS011;60208;48.692;8.948;2023-04-24T04:54:54;3.25;;;2.60;;
72273;SDS011;60208;48.692;8.948;2023-04-24T04:57:20;4.07;;;2.78;;
72273;SDS011;60208;48.692;8.948;2023-04-24T04:59:46;4.47;;;2.50;;
72273;SDS011;60208;48.692;8.948;2023-04-24T05:02:11;5.05;;;3.05;;
72273;SDS011;60208;48.692;8.948;2023-04-24T05:04:37;3.00;;;2.40;;
72273;SDS011;60208;48.692;8.948;2023-04-24T05:07:02;3.58;;;2.38;;
72273;SDS011;60208;48.692;8.948;2023-04-24T05:09:29;3.33;;;3.03;;
72273;SDS011;60208;48.692;8.948;2023-04-24T05:11:55;3.28;;;2.47;;
72273;SDS011;60208;48.692;8.948;2023-04-24T05:14:21;2.80;;;2.58;;
72273;SDS011;60208;48.692;8.948;2023-04-24T05:16:46;3.63;;;3.10;;
72273;SDS011;60208;48.692;8.948;2023-04-24T05:19:12;5.55;;;3.88;;
72273;SDS011;60208;48.692;8.948;2023-04-24T05:21:38;3.72;;;3.42;;
72273;SDS011;60208;48.692;8.948;2023-04-24T05:24:05;4.70;;;3.28;;
72273;SDS011;60208;48.692;8.948;2023-04-24T05:26:31;3.17;;;2.88;;
72273;SDS011;60208;48.692;8.948;2023-04-24T05:28:56;4.35;;;3.28;;
72273;SDS011;60208;48.692;8.948;2023-04-24T05:31:22;3.20;;;2.90;;
72273;SDS011;60208;48.692;8.948;2023-04-24T05:33:47;3.97;;;3.10;;
72273;SDS011;60208;48.692;8.948;2023-04-24T05:36:12;4.57;;;3.58;;
72273;SDS011;60208;48.692;8.948;2023-04-24T05:38:38;3.38;;;3.08;;
72273;SDS011;60208;48.692;8.948;2023-04-24T05:41:03;5.70;;;3.72;;
72273;SDS011;60208;48.692;8.948;2023-04-24T05:43:29;5.90;;;4.22;;
72273;SDS011;60208;48.692;8.948;2023-04-24T05:45:54;7.80;;;3.90;;
72273;SDS011;60208;48.692;8.948;2023-04-24T05:48:20;6.82;;;4.00;;
72273;SDS011;60208;48.692;8.948;2023-04-24T05:50:47;7.22;;;4.57;;
72273;SDS011;60208;48.692;8.948;2023-04-24T05:53:12;7.70;;;3.70;;
72273;SDS011;60208;48.692;8.948;2023-04-24T05:55:38;7.07;;;4.43;;
72273;SDS011;60208;48.692;8.948;2023-04-24T05:58:03;4.82;;;3.88;;
72273;SDS011;60208;48.692;8.948;2023-04-24T06:00:29;5.40;;;3.50;;
72273;SDS011;60208;48.692;8.948;2023-04-24T06:02:55;10.18;;;4.43;;
72273;SDS011;60208;48.692;8.948;2023-04-24T06:05:21;5.18;;;3.80;;
72273;SDS011;60208;48.692;8.948;2023-04-24T06:08:27;4.60;;;4.15;;
72273;SDS011;60208;48.692;8.948;2023-04-24T06:10:53;4.63;;;3.65;;
72273;SDS011;60208;48.692;8.948;2023-04-24T06:13:18;6.07;;;4.07;;
72273;SDS011;60208;48.692;8.948;2023-04-24T06:15:44;6.07;;;4.45;;
72273;SDS011;60208;48.692;8.948;2023-04-24T06:18:10;5.60;;;3.20;;
72273;SDS011;60208;48.692;8.948;2023-04-24T06:20:35;6.32;;;3.70;;
72273;SDS011;60208;48.692;8.948;2023-04-24T06:23:01;4.45;;;3.20;;
72273;SDS011;60208;48.692;8.948;2023-04-24T06:25:26;6.50;;;3.15;;
72273;SDS011;60208;48.692;8.948;2023-04-24T06:27:52;4.15;;;3.00;;
72273;SDS011;60208;48.692;8.948;2023-04-24T06:30:18;5.20;;;3.33;;
72273;SDS011;60208;48.692;8.948;2023-04-24T06:32:43;2.92;;;2.72;;
72273;SDS011;60208;48.692;8.948;2023-04-24T06:35:08;3.67;;;2.80;;
72273;SDS011;60208;48.692;8.948;2023-04-24T06:37:34;4.57;;;2.88;;
72273;SDS011;60208;48.692;8.948;2023-04-24T06:40:00;4.43;;;3.47;;
72273;SDS011;60208;48.692;8.948;2023-04-24T06:42:25;3.83;;;3.28;;
72273;SDS011;60208;48.692;8.948;2023-04-24T06:44:51;7.78;;;6.93;;
72273;SDS011;60208;48.692;8.948;2023-04-24T06:47:16;4.57;;;3.65;;
72273;SDS011;60208;48.692;8.948;2023-04-24T06:49:42;5.75;;;4.82;;
72273;SDS011;60208;48.692;8.948;2023-04-24T06:52:07;3.92;;;3.38;;
72273;SDS011;60208;48.692;8.948;2023-04-24T06:54:33;7.97;;;3.22;;
72273;SDS011;60208;48.692;8.948;2023-04-24T06:56:59;10.90;;;9.88;;
72273;SDS011;60208;48.692;8.948;2023-04-24T06:59:25;4.35;;;2.60;;
72273;SDS011;60208;48.692;8.948;2023-04-24T07:01:51;2.70;;;2.42;;
72273;SDS011;60208;48.692;8.948;2023-04-24T07:04:17;3.40;;;2.22;;
72273;SDS011;60208;48.692;8.948;2023-04-24T07:06:44;3.22;;;2.28;;
72273;SDS011;60208;48.692;8.948;2023-04-24T07:09:11;3.33;;;2.13;;
72273;SDS011;60208;48.692;8.948;2023-04-24T07:11:36;2.03;;;1.80;;
72273;SDS011;60208;48.692;8.948;2023-04-24T07:14:04;2.47;;;1.77;;
72273;SDS011;60208;48.692;8.948;2023-04-24T07:16:29;3.22;;;2.17;;
72273;SDS011;60208;48.692;8.948;2023-04-24T07:18:55;2.28;;;1.90;;
72273;SDS011;60208;48.692;8.948;2023-04-24T07:21:20;2.22;;;2.00;;
72273;SDS011;60208;48.692;8.948;2023-04-24T07:23:46;1.70;;;1.60;;
72273;SDS011;60208;48.692;8.948;2023-04-24T07:26:11;4.53;;;1.90;;
72273;SDS011;60208;48.692;8.948;2023-04-24T07:28:37;1.80;;;1.70;;
72273;SDS011;60208;48.692;8.948;2023-04-24T07:31:02;2.30;;;1.90;;
72273;SDS011;60208;48.692;8.948;2023-04-24T07:33:28;2.03;;;1.73;;
72273;SDS011;60208;48.692;8.948;2023-04-24T07:35:53;2.83;;;2.00;;
72273;SDS011;60208;48.692;8.948;2023-04-24T07:38:18;4.63;;;2.40;;
72273;SDS011;60208;48.692;8.948;2023-04-24T07:40:47;3.22;;;2.05;;
72273;SDS011;60208;48.692;8.948;2023-04-24T07:43:15;2.95;;;1.90;;
72273;SDS011;60208;48.692;8.948;2023-04-24T07:45:40;2.40;;;1.98;;
72273;SDS011;60208;48.692;8.948;2023-04-24T07:48:06;3.50;;;2.30;;
72273;SDS011;60208;48.692;8.948;2023-04-24T07:50:31;3.08;;;1.67;;
72273;SDS011;60208;48.692;8.948;2023-04-24T07:52:57;2.28;;;1.95;;
72273;SDS011;60208;48.692;8.948;2023-04-24T07:55:23;4.13;;;2.10;;
72273;SDS011;60208;48.692;8.948;2023-04-24T07:57:48;2.75;;;1.80;;
72273;SDS011;60208;48.692;8.948;2023-04-24T08:00:14;4.00;;;1.77;;
72273;SDS011;60208;48.692;8.948;2023-04-24T08:02:40;3.63;;;1.85;;
72273;SDS011;60208;48.692;8.948;2023-04-24T08:05:05;2.15;;;1.90;;
72273;SDS011;60208;48.692;8.948;2023-04-24T08:07:32;1.90;;;1.70;;
72273;SDS011;60208;48.692;8.948;2023-04-24T08:09:58;2.10;;;1.70;;
72273;SDS011;60208;48.692;8.948;2023-04-24T08:12:24;3.00;;;1.67;;
72273;SDS011;60208;48.692;8.948;2023-04-24T08:14:50;4.35;;;1.85;;
72273;SDS011;60208;48.692;8.948;2023-04-24T08:17:16;1.88;;;1.60;;
72273;SDS011;60208;48.692;8.948;2023-04-24T08:19:41;2.25;;;1.50;;
72273;SDS011;60208;48.692;8.948;2023-04-24T08:22:12;2.55;;;2.00;;
72273;SDS011;60208;48.692;8.948;2023-04-24T08:24:37;2.53;;;1.90;;
72273;SDS011;60208;48.692;8.948;2023-04-24T08:27:03;2.53;;;1.60;;
72273;SDS011;60208;48.692;8.948;2023-04-24T08:29:28;4.85;;;1.80;;
72273;SDS011;60208;48.692;8.948;2023-04-24T08:31:54;3.33;;;1.80;;
72273;SDS011;60208;48.692;8.948;2023-04-24T08:34:20;3.13;;;1.70;;
72273;SDS011;60208;48.692;8.948;2023-04-24T08:36:46;1.83;;;1.60;;
72273;SDS011;60208;48.692;8.948;2023-04-24T08:39:11;3.50;;;1.77;;
72273;SDS011;60208;48.692;8.948;2023-04-24T08:41:36;1.60;;;1.50;;
72273;SDS011;60208;48.692;8.948;2023-04-24T08:44:02;2.40;;;1.65;;
72273;SDS011;60208;48.692;8.948;2023-04-24T08:46:29;5.25;;;1.67;;
72273;SDS011;60208;48.692;8.948;2023-04-24T08:48:55;2.03;;;1.70;;
72273;SDS011;60208;48.692;8.948;2023-04-24T08:51:21;2.10;;;1.90;;
72273;SDS011;60208;48.692;8.948;2023-04-24T08:53:47;2.85;;;1.90;;
72273;SDS011;60208;48.692;8.948;2023-04-24T08:56:13;3.13;;;1.63;;
72273;SDS011;60208;48.692;8.948;2023-04-24T08:58:39;2.95;;;1.90;;
72273;SDS011;60208;48.692;8.948;2023-04-24T09:01:04;4.93;;;2.05;;
72273;SDS011;60208;48.692;8.948;2023-04-24T09:03:30;3.22;;;1.90;;
72273;SDS011;60208;48.692;8.948;2023-04-24T09:05:56;3.50;;;1.90;;
72273;SDS011;60208;48.692;8.948;2023-04-24T09:08:23;2.45;;;1.80;;
72273;SDS011;60208;48.692;8.948;2023-04-24T09:10:50;3.72;;;1.90;;
72273;SDS011;60208;48.692;8.948;2023-04-24T09:13:15;2.35;;;1.63;;
72273;SDS011;60208;48.692;8.948;2023-04-24T09:15:41;2.58;;;1.35;;
72273;SDS011;60208;48.692;8.948;2023-04-24T09:18:07;1.88;;;1.45;;
72273;SDS011;60208;48.692;8.948;2023-04-24T09:20:32;2.50;;;1.60;;
72273;SDS011;60208;48.692;8.948;2023-04-24T09:23:00;2.72;;;1.38;;
72273;SDS011;60208;48.692;8.948;2023-04-24T09:25:34;3.55;;;1.33;;
72273;SDS011;60208;48.692;8.948;2023-04-24T09:28:03;2.63;;;1.20;;
72273;SDS011;60208;48.692;8.948;2023-04-24T09:30:29;3.25;;;1.30;;
72273;SDS011;60208;48.692;8.948;2023-04-24T09:33:14;1.63;;;1.10;;
72273;SDS011;60208;48.692;8.948;2023-04-24T09:35:50;2.60;;;1.20;;
72273;SDS011;60208;48.692;8.948;2023-04-24T09:38:16;1.55;;;1.10;;
72273;SDS011;60208;48.692;8.948;2023-04-24T09:40:42;2.20;;;1.10;;
72273;SDS011;60208;48.692;8.948;2023-04-24T09:43:10;1.25;;;1.13;;
72273;SDS011;60208;48.692;8.948;2023-04-24T09:45:36;7.55;;;1.50;;
72273;SDS011;60208;48.692;8.948;2023-04-24T09:48:03;4.15;;;0.95;;
72273;SDS011;60208;48.692;8.948;2023-04-24T09:50:30;2.00;;;1.20;;
72273;SDS011;60208;48.692;8.948;2023-04-24T09:53:01;2.08;;;1.20;;
72273;SDS011;60208;48.692;8.948;2023-04-24T09:55:27;1.70;;;1.00;;
72273;SDS011;60208;48.692;8.948;2023-04-24T09:57:59;1.08;;;0.98;;
72273;SDS011;60208;48.692;8.948;2023-04-24T10:00:29;2.10;;;1.23;;
72273;SDS011;60208;48.692;8.948;2023-04-24T10:02:57;1.85;;;1.08;;
72273;SDS011;60208;48.692;8.948;2023-04-24T10:05:31;3.08;;;1.13;;
72273;SDS011;60208;48.692;8.948;2023-04-24T10:08:10;1.10;;;1.00;;
72273;SDS011;60208;48.692;8.948;2023-04-24T10:10:45;2.55;;;1.00;;
72273;SDS011;60208;48.692;8.948;2023-04-24T10:13:12;2.22;;;0.98;;
72273;SDS011;60208;48.692;8.948;2023-04-24T10:15:40;1.13;;;1.00;;
72273;SDS011;60208;48.692;8.948;2023-04-24T10:18:06;1.65;;;1.10;;
72273;SDS011;60208;48.692;8.948;2023-04-24T10:20:32;2.15;;;0.88;;
72273;SDS011;60208;48.692;8.948;2023-04-24T10:22:59;2.35;;;1.13;;
72273;SDS011;60208;48.692;8.948;2023-04-24T10:25:26;1.67;;;1.15;;
72273;SDS011;60208;48.692;8.948;2023-04-24T10:27:53;2.08;;;1.00;;
72273;SDS011;60208;48.692;8.948;2023-04-24T10:30:24;1.40;;;1.00;;
72273;SDS011;60208;48.692;8.948;2023-04-24T10:32:51;1.35;;;0.80;;
72273;SDS011;60208;48.692;8.948;2023-04-24T10:35:16;1.08;;;0.80;;
72273;SDS011;60208;48.692;8.948;2023-04-24T10:37:48;2.05;;;1.02;;
72273;SDS011;60208;48.692;8.948;2023-04-24T10:40:40;2.15;;;0.90;;
72273;SDS011;60208;48.692;8.948;2023-04-24T10:43:07;1.88;;;1.00;;
72273;SDS011;60208;48.692;8.948;2023-04-24T10:45:35;2.75;;;1.00;;
72273;SDS011;60208;48.692;8.948;2023-04-24T10:48:06;1.27;;;0.93;;
72273;SDS011;60208;48.692;8.948;2023-04-24T10:50:43;2.03;;;1.13;;
72273;SDS011;60208;48.692;8.948;2023-04-24T10:53:17;1.77;;;1.10;;
72273;SDS011;60208;48.692;8.948;2023-04-24T10:58:15;1.15;;;1.05;;
72273;SDS011;60208;48.692;8.948;2023-04-24T11:00:42;1.42;;;1.10;;
72273;SDS011;60208;48.692;8.948;2023-04-24T11:08:27;2.67;;;1.30;;
72273;SDS011;60208;48.692;8.948;2023-04-24T11:11:00;2.25;;;1.13;;
72273;SDS011;60208;48.692;8.948;2023-04-24T11:13:31;1.70;;;1.30;;
72273;SDS011;60208;48.692;8.948;2023-04-24T11:21:42;2.58;;;0.80;;
72273;SDS011;60208;48.692;8.948;2023-04-24T11:24:21;2.53;;;1.23;;
72273;SDS011;60208;48.692;8.948;2023-04-24T11:26:47;1.48;;;1.00;;
72273;SDS011;60208;48.692;8.948;2023-04-24T11:29:13;3.15;;;1.20;;
72273;SDS011;60208;48.692;8.948;2023-04-24T11:31:44;2.22;;;1.17;;
72273;SDS011;60208;48.692;8.948;2023-04-24T11:34:15;2.75;;;1.10;;
72273;SDS011;60208;48.692;8.948;2023-04-24T11:36:44;1.73;;;1.20;;
72273;SDS011;60208;48.692;8.948;2023-04-24T11:39:13;2.78;;;1.40;;
72273;SDS011;60208;48.692;8.948;2023-04-24T11:41:39;1.38;;;1.23;;
72273;SDS011;60208;48.692;8.948;2023-04-24T11:44:06;1.65;;;1.30;;
72273;SDS011;60208;48.692;8.948;2023-04-24T11:46:35;1.10;;;1.00;;
72273;SDS011;60208;48.692;8.948;2023-04-24T11:49:02;2.17;;;1.02;;
72273;SDS011;60208;48.692;8.948;2023-04-24T11:51:28;1.20;;;1.00;;
72273;SDS011;60208;48.692;8.948;2023-04-24T11:53:56;1.58;;;0.90;;
72273;SDS011;60208;48.692;8.948;2023-04-24T11:56:22;2.33;;;1.27;;
72273;SDS011;60208;48.692;8.948;2023-04-24T11:58:48;2.17;;;1.10;;
72273;SDS011;60208;48.692;8.948;2023-04-24T12:01:14;2.08;;;1.10;;
72273;SDS011;60208;48.692;8.948;2023-04-24T12:03:40;1.75;;;1.40;;
72273;SDS011;60208;48.692;8.948;2023-04-24T12:06:09;2.38;;;1.20;;
72273;SDS011;60208;48.692;8.948;2023-04-24T12:08:36;2.38;;;1.33;;
72273;SDS011;60208;48.692;8.948;2023-04-24T12:11:03;1.52;;;1.30;;
72273;SDS011;60208;48.692;8.948;2023-04-24T12:13:29;1.40;;;1.30;;
72273;SDS011;60208;48.692;8.948;2023-04-24T12:15:58;2.28;;;1.10;;
72273;SDS011;60208;48.692;8.948;2023-04-24T12:18:23;1.10;;;1.00;;
72273;SDS011;60208;48.692;8.948;2023-04-24T12:20:49;2.40;;;1.23;;
72273;SDS011;60208;48.692;8.948;2023-04-24T12:23:15;2.47;;;1.20;;
72273;SDS011;60208;48.692;8.948;2023-04-24T12:25:40;1.10;;;1.00;;
72273;SDS011;60208;48.692;8.948;2023-04-24T12:28:12;1.50;;;0.90;;
72273;SDS011;60208;48.692;8.948;2023-04-24T12:30:39;1.08;;;0.98;;
72273;SDS011;60208;48.692;8.948;2023-04-24T12:33:06;1.85;;;0.93;;
72273;SDS011;60208;48.692;8.948;2023-04-24T12:35:32;1.08;;;0.93;;
72273;SDS011;60208;48.692;8.948;2023-04-24T12:38:32;1.42;;;1.00;;
72273;SDS011;60208;48.692;8.948;2023-04-24T12:41:01;2.50;;;1.08;;
72273;SDS011;60208;48.692;8.948;2023-04-24T12:43:31;4.70;;;1.20;;
72273;SDS011;60208;48.692;8.948;2023-04-24T12:45:57;1.15;;;0.90;;
72273;SDS011;60208;48.692;8.948;2023-04-24T12:48:28;1.45;;;1.10;;
72273;SDS011;60208;48.692;8.948;2023-04-24T12:50:54;2.42;;;1.02;;
72273;SDS011;60208;48.692;8.948;2023-04-24T12:53:21;1.90;;;1.20;;
72273;SDS011;60208;48.692;8.948;2023-04-24T12:55:47;1.77;;;1.05;;
72273;SDS011;60208;48.692;8.948;2023-04-24T12:58:17;1.10;;;1.10;;
72273;SDS011;60208;48.692;8.948;2023-04-24T13:00:46;1.85;;;1.00;;
72273;SDS011;60208;48.692;8.948;2023-04-24T13:03:12;2.58;;;1.23;;
72273;SDS011;60208;48.692;8.948;2023-04-24T13:05:37;1.92;;;1.20;;
72273;SDS011;60208;48.692;8.948;2023-04-24T13:08:03;1.52;;;1.33;;
72273;SDS011;60208;48.692;8.948;2023-04-24T13:10:29;2.92;;;1.40;;
72273;SDS011;60208;48.692;8.948;2023-04-24T13:12:55;1.77;;;1.30;;
72273;SDS011;60208;48.692;8.948;2023-04-24T13:15:20;2.10;;;1.50;;
72273;SDS011;60208;48.692;8.948;2023-04-24T13:17:45;2.58;;;1.67;;
72273;SDS011;60208;48.692;8.948;2023-04-24T13:20:11;2.30;;;1.50;;
72273;SDS011;60208;48.692;8.948;2023-04-24T13:22:36;2.25;;;1.50;;
72273;SDS011;60208;48.692;8.948;2023-04-24T13:25:02;2.80;;;1.60;;
72273;SDS011;60208;48.692;8.948;2023-04-24T13:27:27;1.70;;;1.60;;
72273;SDS011;60208;48.692;8.948;2023-04-24T13:29:53;2.03;;;1.70;;
72273;SDS011;60208;48.692;8.948;2023-04-24T13:32:18;4.60;;;2.05;;
72273;SDS011;60208;48.692;8.948;2023-04-24T13:34:43;3.25;;;2.22;;
72273;SDS011;60208;48.692;8.948;2023-04-24T13:37:09;2.63;;;2.20;;
72273;SDS011;60208;48.692;8.948;2023-04-24T13:39:34;2.08;;;1.63;;
72273;SDS011;60208;48.692;8.948;2023-04-24T13:42:00;2.17;;;1.70;;
72273;SDS011;60208;48.692;8.948;2023-04-24T13:44:25;2.95;;;1.70;;
72273;SDS011;60208;48.692;8.948;2023-04-24T13:46:51;3.17;;;2.05;;
72273;SDS011;60208;48.692;8.948;2023-04-24T13:49:19;3.90;;;2.20;;
72273;SDS011;60208;48.692;8.948;2023-04-24T13:51:45;3.15;;;1.80;;
72273;SDS011;60208;48.692;8.948;2023-04-24T13:54:12;2.25;;;1.85;;
72273;SDS011;60208;48.692;8.948;2023-04-24T13:56:40;3.53;;;1.92;;
72273;SDS011;60208;48.692;8.948;2023-04-24T13:59:05;4.63;;;3.28;;
72273;SDS011;60208;48.692;8.948;2023-04-24T14:01:31;3.17;;;2.10;;
72273;SDS011;60208;48.692;8.948;2023-04-24T14:03:56;2.72;;;2.10;;
72273;SDS011;60208;48.692;8.948;2023-04-24T14:06:22;3.13;;;2.00;;
72273;SDS011;60208;48.692;8.948;2023-04-24T14:08:48;3.80;;;2.70;;
72273;SDS011;60208;48.692;8.948;2023-04-24T14:11:14;4.18;;;2.70;;
72273;SDS011;60208;48.692;8.948;2023-04-24T14:13:40;3.72;;;1.90;;
72273;SDS011;60208;48.692;8.948;2023-04-24T14:16:06;3.20;;;2.30;;
72273;SDS011;60208;48.692;8.948;2023-04-24T14:18:31;2.50;;;2.30;;
72273;SDS011;60208;48.692;8.948;2023-04-24T14:20:57;3.22;;;2.45;;
72273;SDS011;60208;48.692;8.948;2023-04-24T14:23:22;2.85;;;2.30;;
72273;SDS011;60208;48.692;8.948;2023-04-24T14:25:48;2.58;;;2.20;;
72273;SDS011;60208;48.692;8.948;2023-04-24T14:28:16;4.47;;;2.40;;
72273;SDS011;60208;48.692;8.948;2023-04-24T14:30:42;3.47;;;1.92;;
72273;SDS011;60208;48.692;8.948;2023-04-24T14:33:08;1.60;;;1.50;;
72273;SDS011;60208;48.692;8.948;2023-04-24T14:35:37;2.50;;;1.90;;
72273;SDS011;60208;48.692;8.948;2023-04-24T14:38:02;2.95;;;2.00;;
72273;SDS011;60208;48.692;8.948;2023-04-24T14:40:28;3.60;;;2.20;;
72273;SDS011;60208;48.692;8.948;2023-04-24T14:42:53;4.55;;;2.50;;
72273;SDS011;60208;48.692;8.948;2023-04-24T14:45:18;2.20;;;1.70;;
72273;SDS011;60208;48.692;8.948;2023-04-24T14:47:44;2.95;;;1.83;;
72273;SDS011;60208;48.692;8.948;2023-04-24T14:50:10;3.38;;;2.10;;
72273;SDS011;60208;48.692;8.948;2023-04-24T14:52:37;1.52;;;1.40;;
72273;SDS011;60208;48.692;8.948;2023-04-24T14:55:03;1.70;;;1.35;;
72273;SDS011;60208;48.692;8.948;2023-04-24T14:57:28;4.53;;;1.50;;